Meteorological information in strange format.

METAR = LHBP 091630Z 01007KT 340V050 CAVOK 29/14 Q1019 NOSIG

SHORT TAF = TAF TAF LHBP 242330Z 2423/2424 30008KT CAVOK BECMG 2506/2509 24010KT OVC030 TEMPO 2509/2515 24015G25KT 8000 -RA BKN013 OVC025 BECMG 2515/2518 30008KT CAVOK

LONG TAF = TAF TAF LHBP 091115Z 0912/1012 02008KT CAVOK TEMPO 0912/0916 VRB03KT TEMPO 0912/0920 8000 SHRA SCT045TCU BKN080 TEMPO 0916/0924 08010KT BECMG 1006/1008 03012KT

STATION........ LHBP
OBSERVED....... Tue Aug 9, 18:30 CEST
NOW............ Tue Aug 9, 18:44 CEST
AGE............ 14 min ago
WIND........... N at 8 mph
VISIBILITY..... greater than 7 miles
CLOUDS......... clear skies
TEMP........... 84°F (29°C)
DEWPT.......... 57°F (14°C)
HUMIDITY....... 40%
HEAT INDEX..... 83°F (28°C)
BAROMETER...... 1019 hPa (30.09 in Hg)

Further information from LHBP station

Request meteor information from:        station.    

 

www.tothgeza.hu

 

Magyar változat
Copyright © 2003-2022 Tóth Géza Minden jog fenntartva.